sensor_id;sensor_type;location;lat;lon;timestamp;P1;durP1;ratioP1;P2;durP2;ratioP2
10050;SDS011;5065;46.942;7.432;2023-02-01T00:02:27;14.50;;;9.47;;
10050;SDS011;5065;46.942;7.432;2023-02-01T00:04:54;13.80;;;8.67;;
10050;SDS011;5065;46.942;7.432;2023-02-01T00:07:22;10.60;;;8.23;;
10050;SDS011;5065;46.942;7.432;2023-02-01T00:09:49;14.10;;;8.07;;
10050;SDS011;5065;46.942;7.432;2023-02-01T00:12:16;12.73;;;8.03;;
10050;SDS011;5065;46.942;7.432;2023-02-01T00:14:43;12.27;;;8.07;;
10050;SDS011;5065;46.942;7.432;2023-02-01T00:17:10;9.37;;;7.27;;
10050;SDS011;5065;46.942;7.432;2023-02-01T00:19:39;11.00;;;7.10;;
10050;SDS011;5065;46.942;7.432;2023-02-01T00:22:06;9.90;;;7.23;;
10050;SDS011;5065;46.942;7.432;2023-02-01T00:24:33;13.07;;;7.43;;
10050;SDS011;5065;46.942;7.432;2023-02-01T00:27:00;7.53;;;5.63;;
10050;SDS011;5065;46.942;7.432;2023-02-01T00:29:27;10.30;;;6.47;;
10050;SDS011;5065;46.942;7.432;2023-02-01T00:31:55;7.07;;;5.30;;
10050;SDS011;5065;46.942;7.432;2023-02-01T00:34:22;9.83;;;5.53;;
10050;SDS011;5065;46.942;7.432;2023-02-01T00:36:51;10.23;;;5.23;;
10050;SDS011;5065;46.942;7.432;2023-02-01T00:39:18;9.10;;;7.17;;
10050;SDS011;5065;46.942;7.432;2023-02-01T00:41:45;9.40;;;5.77;;
10050;SDS011;5065;46.942;7.432;2023-02-01T00:44:12;7.03;;;5.60;;
10050;SDS011;5065;46.942;7.432;2023-02-01T00:46:39;8.20;;;6.43;;
10050;SDS011;5065;46.942;7.432;2023-02-01T00:49:09;13.30;;;9.27;;
10050;SDS011;5065;46.942;7.432;2023-02-01T00:51:36;10.30;;;8.27;;
10050;SDS011;5065;46.942;7.432;2023-02-01T00:54:05;10.57;;;8.50;;
10050;SDS011;5065;46.942;7.432;2023-02-01T00:56:33;13.70;;;9.10;;
10050;SDS011;5065;46.942;7.432;2023-02-01T00:59:00;15.27;;;8.90;;
10050;SDS011;5065;46.942;7.432;2023-02-01T01:01:27;11.60;;;7.73;;
10050;SDS011;5065;46.942;7.432;2023-02-01T01:03:55;11.10;;;7.77;;
10050;SDS011;5065;46.942;7.432;2023-02-01T01:06:25;12.33;;;7.53;;
10050;SDS011;5065;46.942;7.432;2023-02-01T01:08:55;11.40;;;7.47;;
10050;SDS011;5065;46.942;7.432;2023-02-01T01:11:25;10.23;;;7.43;;
10050;SDS011;5065;46.942;7.432;2023-02-01T01:13:55;10.80;;;6.73;;
10050;SDS011;5065;46.942;7.432;2023-02-01T01:16:24;8.70;;;6.87;;
10050;SDS011;5065;46.942;7.432;2023-02-01T01:18:53;8.57;;;7.03;;
10050;SDS011;5065;46.942;7.432;2023-02-01T01:21:20;9.83;;;7.20;;
10050;SDS011;5065;46.942;7.432;2023-02-01T01:23:47;12.00;;;7.27;;
10050;SDS011;5065;46.942;7.432;2023-02-01T01:26:15;9.70;;;6.80;;
10050;SDS011;5065;46.942;7.432;2023-02-01T01:28:46;10.27;;;6.83;;
10050;SDS011;5065;46.942;7.432;2023-02-01T01:31:14;11.90;;;7.20;;
10050;SDS011;5065;46.942;7.432;2023-02-01T01:33:42;12.73;;;7.43;;
10050;SDS011;5065;46.942;7.432;2023-02-01T01:36:10;10.30;;;6.93;;
10050;SDS011;5065;46.942;7.432;2023-02-01T01:38:38;10.20;;;7.17;;
10050;SDS011;5065;46.942;7.432;2023-02-01T01:41:06;11.47;;;7.17;;
10050;SDS011;5065;46.942;7.432;2023-02-01T01:43:48;8.53;;;6.83;;
10050;SDS011;5065;46.942;7.432;2023-02-01T01:46:21;8.70;;;6.73;;
10050;SDS011;5065;46.942;7.432;2023-02-01T01:48:51;7.57;;;5.93;;
10050;SDS011;5065;46.942;7.432;2023-02-01T01:51:24;9.30;;;6.97;;
10050;SDS011;5065;46.942;7.432;2023-02-01T01:53:56;10.10;;;6.17;;
10050;SDS011;5065;46.942;7.432;2023-02-01T01:56:27;12.03;;;6.43;;
10050;SDS011;5065;46.942;7.432;2023-02-01T01:58:57;11.63;;;6.57;;
10050;SDS011;5065;46.942;7.432;2023-02-01T02:01:27;8.47;;;6.70;;
10050;SDS011;5065;46.942;7.432;2023-02-01T02:03:54;9.80;;;7.00;;
10050;SDS011;5065;46.942;7.432;2023-02-01T02:06:26;9.87;;;6.67;;
10050;SDS011;5065;46.942;7.432;2023-02-01T02:08:59;8.30;;;6.83;;
10050;SDS011;5065;46.942;7.432;2023-02-01T02:11:26;8.87;;;6.93;;
10050;SDS011;5065;46.942;7.432;2023-02-01T02:13:54;12.30;;;6.83;;
10050;SDS011;5065;46.942;7.432;2023-02-01T02:16:40;8.30;;;6.43;;
10050;SDS011;5065;46.942;7.432;2023-02-01T02:19:32;8.97;;;5.43;;
10050;SDS011;5065;46.942;7.432;2023-02-01T02:22:33;7.53;;;5.57;;
10050;SDS011;5065;46.942;7.432;2023-02-01T02:28:42;8.00;;;6.43;;
10050;SDS011;5065;46.942;7.432;2023-02-01T02:31:34;8.47;;;6.53;;
10050;SDS011;5065;46.942;7.432;2023-02-01T02:34:27;9.53;;;6.27;;
10050;SDS011;5065;46.942;7.432;2023-02-01T02:37:01;10.23;;;6.10;;
10050;SDS011;5065;46.942;7.432;2023-02-01T02:39:40;8.00;;;6.07;;
10050;SDS011;5065;46.942;7.432;2023-02-01T02:42:16;9.27;;;5.63;;
10050;SDS011;5065;46.942;7.432;2023-02-01T02:45:10;6.50;;;5.77;;
10050;SDS011;5065;46.942;7.432;2023-02-01T02:48:02;8.07;;;6.23;;
10050;SDS011;5065;46.942;7.432;2023-02-01T02:50:40;9.07;;;6.10;;
10050;SDS011;5065;46.942;7.432;2023-02-01T02:53:30;7.37;;;5.33;;
10050;SDS011;5065;46.942;7.432;2023-02-01T02:56:24;9.17;;;5.90;;
10050;SDS011;5065;46.942;7.432;2023-02-01T02:59:12;10.40;;;6.13;;
10050;SDS011;5065;46.942;7.432;2023-02-01T03:01:59;6.90;;;5.47;;
10050;SDS011;5065;46.942;7.432;2023-02-01T03:04:43;6.87;;;5.20;;
10050;SDS011;5065;46.942;7.432;2023-02-01T03:07:15;6.20;;;5.23;;
10050;SDS011;5065;46.942;7.432;2023-02-01T03:10:23;7.43;;;5.27;;
10050;SDS011;5065;46.942;7.432;2023-02-01T03:12:59;9.07;;;5.67;;
10050;SDS011;5065;46.942;7.432;2023-02-01T03:15:30;8.53;;;5.57;;
10050;SDS011;5065;46.942;7.432;2023-02-01T03:18:02;8.27;;;5.63;;
10050;SDS011;5065;46.942;7.432;2023-02-01T03:20:35;7.60;;;5.50;;
10050;SDS011;5065;46.942;7.432;2023-02-01T03:23:08;8.53;;;5.50;;
10050;SDS011;5065;46.942;7.432;2023-02-01T03:25:37;7.93;;;5.80;;
10050;SDS011;5065;46.942;7.432;2023-02-01T03:28:06;7.67;;;5.77;;
10050;SDS011;5065;46.942;7.432;2023-02-01T03:30:36;11.40;;;6.73;;
10050;SDS011;5065;46.942;7.432;2023-02-01T03:33:07;8.67;;;6.37;;
10050;SDS011;5065;46.942;7.432;2023-02-01T03:35:50;6.77;;;5.77;;
10050;SDS011;5065;46.942;7.432;2023-02-01T03:38:28;7.20;;;6.00;;
10050;SDS011;5065;46.942;7.432;2023-02-01T03:41:01;7.20;;;5.27;;
10050;SDS011;5065;46.942;7.432;2023-02-01T03:43:36;8.63;;;5.93;;
10050;SDS011;5065;46.942;7.432;2023-02-01T03:46:14;11.10;;;5.97;;
10050;SDS011;5065;46.942;7.432;2023-02-01T03:48:45;9.17;;;5.67;;
10050;SDS011;5065;46.942;7.432;2023-02-01T03:51:14;6.13;;;5.40;;
10050;SDS011;5065;46.942;7.432;2023-02-01T03:53:43;6.07;;;5.33;;
10050;SDS011;5065;46.942;7.432;2023-02-01T03:56:14;7.93;;;5.73;;
10050;SDS011;5065;46.942;7.432;2023-02-01T03:58:43;8.13;;;5.63;;
10050;SDS011;5065;46.942;7.432;2023-02-01T04:01:23;9.00;;;5.90;;
10050;SDS011;5065;46.942;7.432;2023-02-01T04:03:51;6.10;;;4.83;;
10050;SDS011;5065;46.942;7.432;2023-02-01T04:06:18;6.97;;;5.73;;
10050;SDS011;5065;46.942;7.432;2023-02-01T04:08:47;8.13;;;4.90;;
10050;SDS011;5065;46.942;7.432;2023-02-01T04:11:14;7.50;;;5.30;;
10050;SDS011;5065;46.942;7.432;2023-02-01T04:13:41;7.00;;;5.80;;
10050;SDS011;5065;46.942;7.432;2023-02-01T04:16:09;6.63;;;5.60;;
10050;SDS011;5065;46.942;7.432;2023-02-01T04:18:37;9.73;;;5.67;;
10050;SDS011;5065;46.942;7.432;2023-02-01T04:21:04;8.90;;;5.80;;
10050;SDS011;5065;46.942;7.432;2023-02-01T04:23:31;7.93;;;5.37;;
10050;SDS011;5065;46.942;7.432;2023-02-01T04:26:00;9.50;;;5.93;;
10050;SDS011;5065;46.942;7.432;2023-02-01T04:28:28;8.00;;;6.07;;
10050;SDS011;5065;46.942;7.432;2023-02-01T04:30:56;7.27;;;6.00;;
10050;SDS011;5065;46.942;7.432;2023-02-01T04:33:24;6.57;;;5.47;;
10050;SDS011;5065;46.942;7.432;2023-02-01T04:35:51;9.43;;;5.60;;
10050;SDS011;5065;46.942;7.432;2023-02-01T04:38:18;9.27;;;6.27;;
10050;SDS011;5065;46.942;7.432;2023-02-01T04:40:46;9.43;;;6.33;;
10050;SDS011;5065;46.942;7.432;2023-02-01T04:43:16;7.23;;;5.33;;
10050;SDS011;5065;46.942;7.432;2023-02-01T04:45:46;9.10;;;5.97;;
10050;SDS011;5065;46.942;7.432;2023-02-01T04:48:14;6.30;;;5.00;;
10050;SDS011;5065;46.942;7.432;2023-02-01T04:50:42;8.50;;;5.87;;
10050;SDS011;5065;46.942;7.432;2023-02-01T04:53:12;8.93;;;5.33;;
10050;SDS011;5065;46.942;7.432;2023-02-01T04:55:40;7.80;;;5.20;;
10050;SDS011;5065;46.942;7.432;2023-02-01T04:58:08;16.40;;;5.70;;
10050;SDS011;5065;46.942;7.432;2023-02-01T05:00:37;7.87;;;5.60;;
10050;SDS011;5065;46.942;7.432;2023-02-01T05:03:04;7.33;;;5.67;;
10050;SDS011;5065;46.942;7.432;2023-02-01T05:05:31;6.43;;;5.27;;
10050;SDS011;5065;46.942;7.432;2023-02-01T05:07:59;9.13;;;6.00;;
10050;SDS011;5065;46.942;7.432;2023-02-01T05:10:26;8.37;;;5.13;;
10050;SDS011;5065;46.942;7.432;2023-02-01T05:12:53;9.27;;;5.67;;
10050;SDS011;5065;46.942;7.432;2023-02-01T05:15:39;8.00;;;5.30;;
10050;SDS011;5065;46.942;7.432;2023-02-01T05:18:06;7.87;;;6.30;;
10050;SDS011;5065;46.942;7.432;2023-02-01T05:20:33;6.27;;;5.37;;
10050;SDS011;5065;46.942;7.432;2023-02-01T05:23:00;6.70;;;5.37;;
10050;SDS011;5065;46.942;7.432;2023-02-01T05:25:27;7.27;;;5.57;;
10050;SDS011;5065;46.942;7.432;2023-02-01T05:27:54;6.93;;;5.67;;
10050;SDS011;5065;46.942;7.432;2023-02-01T05:30:22;8.90;;;6.10;;
10050;SDS011;5065;46.942;7.432;2023-02-01T05:32:51;7.73;;;5.33;;
10050;SDS011;5065;46.942;7.432;2023-02-01T05:35:18;8.87;;;5.40;;
10050;SDS011;5065;46.942;7.432;2023-02-01T05:37:46;8.53;;;6.07;;
10050;SDS011;5065;46.942;7.432;2023-02-01T05:40:13;8.93;;;5.53;;
10050;SDS011;5065;46.942;7.432;2023-02-01T05:42:40;6.17;;;4.87;;
10050;SDS011;5065;46.942;7.432;2023-02-01T05:45:08;7.73;;;5.27;;
10050;SDS011;5065;46.942;7.432;2023-02-01T05:47:35;8.57;;;6.17;;
10050;SDS011;5065;46.942;7.432;2023-02-01T05:50:05;7.90;;;6.57;;
10050;SDS011;5065;46.942;7.432;2023-02-01T05:52:33;8.33;;;5.40;;
10050;SDS011;5065;46.942;7.432;2023-02-01T05:55:00;9.17;;;5.60;;
10050;SDS011;5065;46.942;7.432;2023-02-01T05:57:27;9.20;;;5.60;;
10050;SDS011;5065;46.942;7.432;2023-02-01T05:59:55;9.47;;;5.60;;
10050;SDS011;5065;46.942;7.432;2023-02-01T06:02:22;8.40;;;6.03;;
10050;SDS011;5065;46.942;7.432;2023-02-01T06:04:50;12.57;;;6.23;;
10050;SDS011;5065;46.942;7.432;2023-02-01T06:07:18;7.43;;;6.27;;
10050;SDS011;5065;46.942;7.432;2023-02-01T06:09:46;8.50;;;5.97;;
10050;SDS011;5065;46.942;7.432;2023-02-01T06:12:13;8.90;;;5.73;;
10050;SDS011;5065;46.942;7.432;2023-02-01T06:14:40;8.63;;;5.63;;
10050;SDS011;5065;46.942;7.432;2023-02-01T06:17:08;7.67;;;6.17;;
10050;SDS011;5065;46.942;7.432;2023-02-01T06:19:35;7.37;;;5.80;;
10050;SDS011;5065;46.942;7.432;2023-02-01T06:22:02;8.13;;;5.90;;
10050;SDS011;5065;46.942;7.432;2023-02-01T06:24:32;8.53;;;6.17;;
10050;SDS011;5065;46.942;7.432;2023-02-01T06:27:00;9.07;;;6.20;;
10050;SDS011;5065;46.942;7.432;2023-02-01T06:29:27;7.90;;;5.97;;
10050;SDS011;5065;46.942;7.432;2023-02-01T06:31:54;10.60;;;6.43;;
10050;SDS011;5065;46.942;7.432;2023-02-01T06:34:21;6.70;;;5.33;;
10050;SDS011;5065;46.942;7.432;2023-02-01T06:36:49;6.83;;;5.07;;
10050;SDS011;5065;46.942;7.432;2023-02-01T06:39:16;9.93;;;5.87;;
10050;SDS011;5065;46.942;7.432;2023-02-01T06:41:46;6.40;;;5.33;;
10050;SDS011;5065;46.942;7.432;2023-02-01T06:44:15;7.20;;;5.43;;
10050;SDS011;5065;46.942;7.432;2023-02-01T06:46:42;7.83;;;4.77;;
10050;SDS011;5065;46.942;7.432;2023-02-01T06:49:10;7.97;;;5.43;;
10050;SDS011;5065;46.942;7.432;2023-02-01T06:51:37;7.50;;;5.23;;
10050;SDS011;5065;46.942;7.432;2023-02-01T06:54:04;7.00;;;5.40;;
10050;SDS011;5065;46.942;7.432;2023-02-01T06:56:31;7.47;;;5.10;;
10050;SDS011;5065;46.942;7.432;2023-02-01T06:59:01;11.87;;;6.63;;
10050;SDS011;5065;46.942;7.432;2023-02-01T07:01:30;7.43;;;5.73;;
10050;SDS011;5065;46.942;7.432;2023-02-01T07:04:00;7.67;;;5.27;;
10050;SDS011;5065;46.942;7.432;2023-02-01T07:06:27;7.23;;;5.30;;
10050;SDS011;5065;46.942;7.432;2023-02-01T07:08:54;8.53;;;5.57;;
10050;SDS011;5065;46.942;7.432;2023-02-01T07:11:23;9.37;;;4.90;;
10050;SDS011;5065;46.942;7.432;2023-02-01T07:13:52;10.60;;;5.50;;
10050;SDS011;5065;46.942;7.432;2023-02-01T07:16:21;10.77;;;5.50;;
10050;SDS011;5065;46.942;7.432;2023-02-01T07:18:49;8.13;;;5.63;;
10050;SDS011;5065;46.942;7.432;2023-02-01T07:21:17;8.43;;;5.77;;
10050;SDS011;5065;46.942;7.432;2023-02-01T07:23:45;7.80;;;5.43;;
10050;SDS011;5065;46.942;7.432;2023-02-01T07:26:13;7.57;;;5.13;;
10050;SDS011;5065;46.942;7.432;2023-02-01T07:28:41;7.37;;;5.20;;
10050;SDS011;5065;46.942;7.432;2023-02-01T07:31:09;8.83;;;5.83;;
10050;SDS011;5065;46.942;7.432;2023-02-01T07:33:40;8.10;;;5.50;;
10050;SDS011;5065;46.942;7.432;2023-02-01T07:36:08;8.00;;;4.90;;
10050;SDS011;5065;46.942;7.432;2023-02-01T07:38:38;8.37;;;5.73;;
10050;SDS011;5065;46.942;7.432;2023-02-01T07:41:06;7.37;;;5.40;;
10050;SDS011;5065;46.942;7.432;2023-02-01T07:43:33;6.47;;;4.73;;
10050;SDS011;5065;46.942;7.432;2023-02-01T07:46:01;7.67;;;5.90;;
10050;SDS011;5065;46.942;7.432;2023-02-01T07:48:29;10.17;;;5.80;;
10050;SDS011;5065;46.942;7.432;2023-02-01T07:51:00;14.10;;;6.03;;
10050;SDS011;5065;46.942;7.432;2023-02-01T07:53:29;7.43;;;5.20;;
10050;SDS011;5065;46.942;7.432;2023-02-01T07:55:57;8.10;;;5.80;;
10050;SDS011;5065;46.942;7.432;2023-02-01T07:58:25;8.73;;;5.97;;
10050;SDS011;5065;46.942;7.432;2023-02-01T08:00:53;10.70;;;6.70;;
10050;SDS011;5065;46.942;7.432;2023-02-01T08:03:38;7.90;;;5.77;;
10050;SDS011;5065;46.942;7.432;2023-02-01T08:06:08;11.37;;;6.53;;
10050;SDS011;5065;46.942;7.432;2023-02-01T08:08:35;7.70;;;5.70;;
10050;SDS011;5065;46.942;7.432;2023-02-01T08:11:03;14.60;;;5.43;;
10050;SDS011;5065;46.942;7.432;2023-02-01T08:13:32;8.47;;;6.10;;
10050;SDS011;5065;46.942;7.432;2023-02-01T08:16:01;9.80;;;5.73;;
10050;SDS011;5065;46.942;7.432;2023-02-01T08:18:29;9.03;;;5.97;;
10050;SDS011;5065;46.942;7.432;2023-02-01T08:20:56;12.53;;;6.67;;
10050;SDS011;5065;46.942;7.432;2023-02-01T08:23:30;7.37;;;5.57;;
10050;SDS011;5065;46.942;7.432;2023-02-01T08:26:03;8.70;;;6.07;;
10050;SDS011;5065;46.942;7.432;2023-02-01T08:28:34;7.80;;;5.57;;
10050;SDS011;5065;46.942;7.432;2023-02-01T08:31:03;8.70;;;6.20;;
10050;SDS011;5065;46.942;7.432;2023-02-01T08:33:32;8.47;;;5.93;;
10050;SDS011;5065;46.942;7.432;2023-02-01T08:36:02;9.87;;;6.00;;
10050;SDS011;5065;46.942;7.432;2023-02-01T08:38:31;13.10;;;6.40;;
10050;SDS011;5065;46.942;7.432;2023-02-01T08:41:03;9.00;;;5.80;;
10050;SDS011;5065;46.942;7.432;2023-02-01T08:43:31;9.40;;;6.40;;
10050;SDS011;5065;46.942;7.432;2023-02-01T08:45:58;6.97;;;5.40;;
10050;SDS011;5065;46.942;7.432;2023-02-01T08:48:26;8.80;;;6.20;;
10050;SDS011;5065;46.942;7.432;2023-02-01T08:50:53;9.67;;;6.13;;
10050;SDS011;5065;46.942;7.432;2023-02-01T08:53:20;7.87;;;5.93;;
10050;SDS011;5065;46.942;7.432;2023-02-01T08:55:49;7.27;;;5.77;;
10050;SDS011;5065;46.942;7.432;2023-02-01T08:58:16;8.37;;;5.33;;
10050;SDS011;5065;46.942;7.432;2023-02-01T09:00:44;11.50;;;5.60;;
10050;SDS011;5065;46.942;7.432;2023-02-01T09:03:13;12.37;;;6.33;;
10050;SDS011;5065;46.942;7.432;2023-02-01T09:05:40;8.57;;;6.10;;
10050;SDS011;5065;46.942;7.432;2023-02-01T09:08:08;11.43;;;6.80;;
10050;SDS011;5065;46.942;7.432;2023-02-01T09:10:37;8.63;;;5.87;;
10050;SDS011;5065;46.942;7.432;2023-02-01T09:13:06;7.57;;;5.77;;
10050;SDS011;5065;46.942;7.432;2023-02-01T09:15:33;7.00;;;5.03;;
10050;SDS011;5065;46.942;7.432;2023-02-01T09:18:00;8.50;;;5.50;;
10050;SDS011;5065;46.942;7.432;2023-02-01T09:20:27;9.37;;;5.80;;
10050;SDS011;5065;46.942;7.432;2023-02-01T09:22:55;9.53;;;6.00;;
10050;SDS011;5065;46.942;7.432;2023-02-01T09:25:22;8.97;;;6.10;;
10050;SDS011;5065;46.942;7.432;2023-02-01T09:27:49;10.67;;;5.73;;
10050;SDS011;5065;46.942;7.432;2023-02-01T09:30:18;8.30;;;5.83;;
10050;SDS011;5065;46.942;7.432;2023-02-01T09:32:45;13.30;;;6.00;;
10050;SDS011;5065;46.942;7.432;2023-02-01T09:35:12;9.37;;;5.40;;
10050;SDS011;5065;46.942;7.432;2023-02-01T09:37:40;10.37;;;7.23;;
10050;SDS011;5065;46.942;7.432;2023-02-01T09:40:08;10.60;;;7.33;;
10050;SDS011;5065;46.942;7.432;2023-02-01T09:45:46;10.93;;;5.77;;
10050;SDS011;5065;46.942;7.432;2023-02-01T09:48:19;11.33;;;6.73;;
10050;SDS011;5065;46.942;7.432;2023-02-01T09:50:51;9.33;;;5.90;;
10050;SDS011;5065;46.942;7.432;2023-02-01T09:53:21;8.00;;;6.13;;
10050;SDS011;5065;46.942;7.432;2023-02-01T09:55:54;9.47;;;6.40;;
10050;SDS011;5065;46.942;7.432;2023-02-01T09:58:27;6.07;;;4.90;;
10050;SDS011;5065;46.942;7.432;2023-02-01T10:01:02;8.10;;;5.87;;
10050;SDS011;5065;46.942;7.432;2023-02-01T10:03:31;11.77;;;7.53;;
10050;SDS011;5065;46.942;7.432;2023-02-01T10:06:14;8.53;;;6.47;;
10050;SDS011;5065;46.942;7.432;2023-02-01T10:09:07;10.70;;;5.90;;
10050;SDS011;5065;46.942;7.432;2023-02-01T10:11:47;12.07;;;5.50;;
10050;SDS011;5065;46.942;7.432;2023-02-01T10:14:32;6.57;;;5.10;;
10050;SDS011;5065;46.942;7.432;2023-02-01T10:17:12;8.13;;;5.23;;
10050;SDS011;5065;46.942;7.432;2023-02-01T10:19:54;11.23;;;5.70;;
10050;SDS011;5065;46.942;7.432;2023-02-01T10:22:31;8.43;;;5.73;;
10050;SDS011;5065;46.942;7.432;2023-02-01T10:25:07;8.83;;;6.20;;
10050;SDS011;5065;46.942;7.432;2023-02-01T10:27:40;7.37;;;4.90;;
10050;SDS011;5065;46.942;7.432;2023-02-01T10:30:14;10.63;;;5.87;;
10050;SDS011;5065;46.942;7.432;2023-02-01T10:32:46;8.73;;;5.83;;
10050;SDS011;5065;46.942;7.432;2023-02-01T10:35:17;9.37;;;5.53;;
10050;SDS011;5065;46.942;7.432;2023-02-01T10:37:48;11.77;;;6.20;;
10050;SDS011;5065;46.942;7.432;2023-02-01T10:40:16;10.83;;;6.00;;
10050;SDS011;5065;46.942;7.432;2023-02-01T10:42:46;8.50;;;5.60;;
10050;SDS011;5065;46.942;7.432;2023-02-01T10:45:16;10.37;;;5.77;;
10050;SDS011;5065;46.942;7.432;2023-02-01T10:47:47;7.73;;;5.10;;
10050;SDS011;5065;46.942;7.432;2023-02-01T10:50:19;9.87;;;5.33;;
10050;SDS011;5065;46.942;7.432;2023-02-01T10:52:57;8.97;;;5.30;;
10050;SDS011;5065;46.942;7.432;2023-02-01T10:55:38;7.73;;;4.47;;
10050;SDS011;5065;46.942;7.432;2023-02-01T10:58:07;7.90;;;5.00;;
10050;SDS011;5065;46.942;7.432;2023-02-01T11:00:45;8.10;;;5.27;;
10050;SDS011;5065;46.942;7.432;2023-02-01T11:06:13;6.20;;;5.10;;
10050;SDS011;5065;46.942;7.432;2023-02-01T11:08:46;8.73;;;5.47;;
10050;SDS011;5065;46.942;7.432;2023-02-01T11:11:15;7.23;;;5.57;;
10050;SDS011;5065;46.942;7.432;2023-02-01T11:13:42;5.80;;;4.60;;
10050;SDS011;5065;46.942;7.432;2023-02-01T11:16:11;6.40;;;5.13;;
10050;SDS011;5065;46.942;7.432;2023-02-01T11:18:42;13.67;;;6.03;;
10050;SDS011;5065;46.942;7.432;2023-02-01T11:21:09;8.67;;;5.37;;
10050;SDS011;5065;46.942;7.432;2023-02-01T11:23:41;10.43;;;3.97;;
10050;SDS011;5065;46.942;7.432;2023-02-01T11:26:12;12.83;;;7.83;;
10050;SDS011;5065;46.942;7.432;2023-02-01T11:28:43;7.07;;;4.20;;
10050;SDS011;5065;46.942;7.432;2023-02-01T11:31:17;2.83;;;2.30;;
10050;SDS011;5065;46.942;7.432;2023-02-01T11:33:49;5.00;;;3.13;;
10050;SDS011;5065;46.942;7.432;2023-02-01T11:36:20;10.47;;;3.10;;
10050;SDS011;5065;46.942;7.432;2023-02-01T11:38:52;5.83;;;3.63;;
10050;SDS011;5065;46.942;7.432;2023-02-01T11:41:22;4.77;;;3.50;;
10050;SDS011;5065;46.942;7.432;2023-02-01T11:43:51;5.93;;;2.80;;
10050;SDS011;5065;46.942;7.432;2023-02-01T11:46:22;3.40;;;2.97;;
10050;SDS011;5065;46.942;7.432;2023-02-01T11:48:55;9.27;;;3.50;;
10050;SDS011;5065;46.942;7.432;2023-02-01T11:51:30;5.50;;;3.00;;
10050;SDS011;5065;46.942;7.432;2023-02-01T11:54:14;6.00;;;3.40;;
10050;SDS011;5065;46.942;7.432;2023-02-01T11:56:54;3.87;;;2.80;;
10050;SDS011;5065;46.942;7.432;2023-02-01T11:59:39;8.17;;;3.90;;
10050;SDS011;5065;46.942;7.432;2023-02-01T12:05:24;5.63;;;4.03;;
10050;SDS011;5065;46.942;7.432;2023-02-01T12:10:53;7.87;;;4.07;;
10050;SDS011;5065;46.942;7.432;2023-02-01T12:13:34;6.00;;;4.30;;
10050;SDS011;5065;46.942;7.432;2023-02-01T12:16:15;5.50;;;3.40;;
10050;SDS011;5065;46.942;7.432;2023-02-01T12:22:08;5.87;;;3.37;;
10050;SDS011;5065;46.942;7.432;2023-02-01T12:24:48;3.80;;;3.40;;
10050;SDS011;5065;46.942;7.432;2023-02-01T12:27:33;5.73;;;3.53;;
10050;SDS011;5065;46.942;7.432;2023-02-01T12:30:18;4.13;;;3.40;;
10050;SDS011;5065;46.942;7.432;2023-02-01T12:33:12;3.53;;;2.77;;
10050;SDS011;5065;46.942;7.432;2023-02-01T12:35:50;3.77;;;2.70;;
10050;SDS011;5065;46.942;7.432;2023-02-01T12:41:36;5.50;;;2.87;;
10050;SDS011;5065;46.942;7.432;2023-02-01T12:44:17;4.93;;;2.60;;
10050;SDS011;5065;46.942;7.432;2023-02-01T12:46:53;4.87;;;2.13;;
10050;SDS011;5065;46.942;7.432;2023-02-01T12:49:27;1.63;;;1.40;;
10050;SDS011;5065;46.942;7.432;2023-02-01T12:52:02;2.77;;;1.93;;
10050;SDS011;5065;46.942;7.432;2023-02-01T12:54:38;4.13;;;2.20;;
10050;SDS011;5065;46.942;7.432;2023-02-01T12:57:10;2.83;;;1.67;;
10050;SDS011;5065;46.942;7.432;2023-02-01T12:59:42;1.60;;;1.47;;
10050;SDS011;5065;46.942;7.432;2023-02-01T13:02:16;3.07;;;1.67;;
10050;SDS011;5065;46.942;7.432;2023-02-01T13:04:51;1.30;;;1.20;;
10050;SDS011;5065;46.942;7.432;2023-02-01T13:07:29;1.63;;;1.30;;
10050;SDS011;5065;46.942;7.432;2023-02-01T13:10:03;1.67;;;1.57;;
10050;SDS011;5065;46.942;7.432;2023-02-01T13:12:38;3.27;;;2.30;;
10050;SDS011;5065;46.942;7.432;2023-02-01T13:15:12;3.53;;;2.23;;
10050;SDS011;5065;46.942;7.432;2023-02-01T13:17:42;3.40;;;2.80;;
10050;SDS011;5065;46.942;7.432;2023-02-01T13:20:15;4.13;;;2.97;;
10050;SDS011;5065;46.942;7.432;2023-02-01T13:22:48;3.40;;;2.97;;
10050;SDS011;5065;46.942;7.432;2023-02-01T13:25:23;3.37;;;2.37;;
10050;SDS011;5065;46.942;7.432;2023-02-01T13:27:57;2.60;;;2.37;;
10050;SDS011;5065;46.942;7.432;2023-02-01T13:30:30;3.90;;;2.30;;
10050;SDS011;5065;46.942;7.432;2023-02-01T13:33:18;8.77;;;2.83;;
10050;SDS011;5065;46.942;7.432;2023-02-01T13:36:12;3.73;;;2.73;;
10050;SDS011;5065;46.942;7.432;2023-02-01T13:39:14;5.10;;;2.87;;
10050;SDS011;5065;46.942;7.432;2023-02-01T13:42:20;3.20;;;2.90;;
10050;SDS011;5065;46.942;7.432;2023-02-01T13:44:50;7.73;;;3.03;;
10050;SDS011;5065;46.942;7.432;2023-02-01T13:47:22;3.20;;;2.77;;
10050;SDS011;5065;46.942;7.432;2023-02-01T13:49:53;2.83;;;2.40;;
10050;SDS011;5065;46.942;7.432;2023-02-01T13:52:28;3.63;;;2.80;;
10050;SDS011;5065;46.942;7.432;2023-02-01T13:55:00;3.53;;;2.63;;
10050;SDS011;5065;46.942;7.432;2023-02-01T13:57:41;7.17;;;2.47;;
10050;SDS011;5065;46.942;7.432;2023-02-01T14:00:23;2.33;;;2.13;;
10050;SDS011;5065;46.942;7.432;2023-02-01T14:15:22;2.10;;;1.90;;
10050;SDS011;5065;46.942;7.432;2023-02-01T14:17:51;2.20;;;2.00;;
10050;SDS011;5065;46.942;7.432;2023-02-01T14:23:21;4.40;;;2.33;;
10050;SDS011;5065;46.942;7.432;2023-02-01T14:28:59;2.60;;;2.20;;
10050;SDS011;5065;46.942;7.432;2023-02-01T14:31:33;3.33;;;2.00;;
10050;SDS011;5065;46.942;7.432;2023-02-01T14:34:14;7.07;;;2.30;;
10050;SDS011;5065;46.942;7.432;2023-02-01T14:36:45;2.67;;;2.27;;
10050;SDS011;5065;46.942;7.432;2023-02-01T14:39:25;5.30;;;3.40;;
10050;SDS011;5065;46.942;7.432;2023-02-01T14:41:57;2.47;;;2.27;;
10050;SDS011;5065;46.942;7.432;2023-02-01T14:44:32;2.57;;;2.20;;
10050;SDS011;5065;46.942;7.432;2023-02-01T14:47:05;4.90;;;2.23;;
10050;SDS011;5065;46.942;7.432;2023-02-01T14:49:53;2.63;;;2.13;;
10050;SDS011;5065;46.942;7.432;2023-02-01T14:52:23;2.40;;;1.77;;
10050;SDS011;5065;46.942;7.432;2023-02-01T14:54:59;3.63;;;2.03;;
10050;SDS011;5065;46.942;7.432;2023-02-01T14:57:31;3.50;;;2.10;;
10050;SDS011;5065;46.942;7.432;2023-02-01T15:00:10;2.37;;;1.70;;
10050;SDS011;5065;46.942;7.432;2023-02-01T15:02:44;2.83;;;2.37;;
10050;SDS011;5065;46.942;7.432;2023-02-01T15:05:22;2.20;;;2.00;;
10050;SDS011;5065;46.942;7.432;2023-02-01T15:07:51;4.07;;;1.87;;
10050;SDS011;5065;46.942;7.432;2023-02-01T15:10:19;2.27;;;1.70;;
10050;SDS011;5065;46.942;7.432;2023-02-01T15:12:48;1.93;;;1.70;;
10050;SDS011;5065;46.942;7.432;2023-02-01T15:15:18;3.97;;;2.10;;
10050;SDS011;5065;46.942;7.432;2023-02-01T15:17:51;2.77;;;1.90;;
10050;SDS011;5065;46.942;7.432;2023-02-01T15:20:21;4.73;;;2.20;;
10050;SDS011;5065;46.942;7.432;2023-02-01T15:22:54;2.47;;;2.27;;
10050;SDS011;5065;46.942;7.432;2023-02-01T15:25:24;3.67;;;2.20;;
10050;SDS011;5065;46.942;7.432;2023-02-01T15:27:52;1.67;;;1.37;;
10050;SDS011;5065;46.942;7.432;2023-02-01T15:30:22;3.10;;;1.40;;
10050;SDS011;5065;46.942;7.432;2023-02-01T15:32:50;3.40;;;1.77;;
10050;SDS011;5065;46.942;7.432;2023-02-01T15:35:35;1.50;;;1.40;;
10050;SDS011;5065;46.942;7.432;2023-02-01T15:38:20;1.57;;;1.30;;
10050;SDS011;5065;46.942;7.432;2023-02-01T15:40:59;4.10;;;1.77;;
10050;SDS011;5065;46.942;7.432;2023-02-01T15:43:29;2.40;;;1.60;;
10050;SDS011;5065;46.942;7.432;2023-02-01T15:46:00;4.23;;;1.57;;
10050;SDS011;5065;46.942;7.432;2023-02-01T15:48:32;3.90;;;1.70;;
10050;SDS011;5065;46.942;7.432;2023-02-01T15:51:03;1.50;;;1.40;;
10050;SDS011;5065;46.942;7.432;2023-02-01T15:53:31;2.70;;;1.70;;
10050;SDS011;5065;46.942;7.432;2023-02-01T15:56:00;1.70;;;1.47;;
10050;SDS011;5065;46.942;7.432;2023-02-01T15:58:30;3.17;;;1.60;;
10050;SDS011;5065;46.942;7.432;2023-02-01T16:01:00;2.57;;;1.40;;
10050;SDS011;5065;46.942;7.432;2023-02-01T16:03:34;1.60;;;1.50;;
10050;SDS011;5065;46.942;7.432;2023-02-01T16:06:04;1.67;;;1.27;;
10050;SDS011;5065;46.942;7.432;2023-02-01T16:08:33;1.93;;;1.40;;